Time;durP1;ratioP1;P1;durP2;ratioP2;P2;SDS_P1;SDS_P2;PMS_P1;PMS_P2;Temp;Humidity;BMP_temperature;BMP_pressure;BME280_temperature;BME280_humidity;BME280_pressure;Samples;Min_cycle;Max_cycle;Signal;HPM_P1;HPM_P2
2022/04/01 00:03:22;;;;;;;8.27;3.43;;;;;;;1.82;38.77;99381.09;3575733;82;98297;-83
2022/04/01 00:08:23;;;;;;;8.73;3.33;;;;;;;1.80;39.01;99377.15;3601628;81;98291;-82
2022/04/01 00:13:23;;;;;;;9.73;3.43;;;;;;;1.74;38.84;99372.52;3583822;80;98252;-84
2022/04/01 00:18:25;;;;;;;11.93;4.90;;;;;;;1.72;38.79;99375.35;3600838;80;26490;-83
2022/04/01 00:23:26;;;;;;;8.37;3.10;;;;;;;1.69;38.84;99371.98;3567420;81;98805;-76
2022/04/01 00:28:27;;;;;;;10.93;3.37;;;;;;;1.64;39.11;99377.65;3588952;82;98341;-80
2022/04/01 00:33:28;;;;;;;10.07;4.23;;;;;;;1.60;38.98;99382.17;3579698;81;98414;-83
2022/04/01 00:38:29;;;;;;;10.03;3.95;;;;;;;1.57;39.13;99380.12;3567685;81;98846;-83
2022/04/01 00:43:34;;;;;;;10.87;3.77;;;;;;;1.52;39.16;99373.03;3567564;81;98507;-82
2022/04/01 00:48:35;;;;;;;8.63;3.47;;;;;;;1.49;38.93;99374.28;3590503;81;31628;-82
2022/04/01 00:53:36;;;;;;;10.27;4.17;;;;;;;1.45;39.08;99366.05;3575112;82;98184;-78
2022/04/01 00:58:37;;;;;;;10.53;3.95;;;;;;;1.40;39.27;99362.78;3578723;82;98476;-80
2022/04/01 01:03:38;;;;;;;9.60;3.73;;;;;;;1.35;39.23;99355.68;3599999;81;98038;-81
2022/04/01 01:08:40;;;;;;;10.40;4.10;;;;;;;1.31;39.46;99357.48;3575047;81;98314;-82
2022/04/01 01:13:41;;;;;;;9.07;3.50;;;;;;;1.28;39.26;99351.41;3583864;82;98735;-82
2022/04/01 01:18:42;;;;;;;9.07;3.67;;;;;;;1.25;39.59;99349.37;3581449;82;26059;-81
2022/04/01 01:23:45;;;;;;;9.57;3.90;;;;;;;1.19;39.69;99356.16;3580581;81;98373;-81
2022/04/01 01:28:46;;;;;;;10.33;3.87;;;;;;;1.15;39.61;99347.13;3580579;82;98081;-81
2022/04/01 01:33:49;;;;;;;10.57;3.70;;;;;;;1.13;39.75;99348.03;3580351;82;98537;-81
2022/04/01 01:38:50;;;;;;;11.27;4.10;;;;;;;1.12;39.89;99341.05;3594618;81;98479;-82
2022/04/01 01:43:52;;;;;;;10.87;3.97;;;;;;;1.10;39.80;99350.64;3573384;81;98390;-84
2022/04/01 01:48:53;;;;;;;17.87;5.53;;;;;;;1.09;40.07;99339.00;3578232;82;25869;-82
2022/04/01 01:59:13;;;;;;;9.25;4.40;;;;;;;1.07;39.97;99340.47;3567070;82;98712;-81
2022/04/01 02:04:14;;;;;;;14.43;5.23;;;;;;;1.04;40.73;99347.36;3562609;81;98233;-82
2022/04/01 02:09:16;;;;;;;14.57;4.77;;;;;;;1.01;40.38;99339.93;3584403;81;98591;-82
2022/04/01 02:14:18;;;;;;;11.47;4.03;;;;;;;1.00;40.27;99336.97;3565016;81;98560;-82
2022/04/01 02:19:21;;;;;;;16.03;4.73;;;;;;;0.98;40.74;99338.44;3525517;82;98739;-82
2022/04/01 02:24:24;;;;;;;13.77;5.13;;;;;;;0.95;41.00;99337.23;3499755;82;98334;-81
2022/04/01 02:29:25;;;;;;;10.90;4.17;;;;;;;0.91;41.37;99332.26;3559831;81;98252;-81
2022/04/01 02:34:27;;;;;;;10.53;3.80;;;;;;;0.89;41.35;99329.08;3549767;81;98513;-82
2022/04/01 02:39:28;;;;;;;8.60;3.70;;;;;;;0.86;41.30;99325.71;3581212;82;98426;-82
2022/04/01 02:44:29;;;;;;;13.03;4.43;;;;;;;0.83;41.68;99327.73;3562731;81;97998;-80
2022/04/01 02:49:30;;;;;;;10.70;3.63;;;;;;;0.82;41.42;99322.09;3583971;81;98419;-79
2022/04/01 02:54:35;;;;;;;10.43;4.37;;;;;;;0.79;41.56;99327.41;3566719;82;98415;-81
2022/04/01 02:59:36;;;;;;;11.57;4.28;;;;;;;0.75;41.41;99319.17;3595629;81;98478;-82
2022/04/01 03:04:37;;;;;;;11.43;4.20;;;;;;;0.70;41.92;99313.98;3588956;82;98691;-83
2022/04/01 03:09:38;;;;;;;10.23;4.17;;;;;;;0.66;41.82;99302.24;3581591;82;98845;-81
2022/04/01 03:14:39;;;;;;;10.17;3.80;;;;;;;0.63;42.06;99307.55;3572185;81;98489;-82
2022/04/01 03:19:40;;;;;;;8.90;2.93;;;;;;;0.61;41.90;99302.47;3582738;81;98465;-82
2022/04/01 03:24:42;;;;;;;9.18;3.10;;;;;;;0.60;42.15;99310.37;3570570;81;98302;-81
2022/04/01 03:29:43;;;;;;;10.10;3.87;;;;;;;0.56;42.17;99313.52;3587901;81;98184;-81
2022/04/01 03:34:44;;;;;;;7.87;3.40;;;;;;;0.53;42.51;99316.91;3565480;82;98461;-81
2022/04/01 03:39:45;;;;;;;9.17;3.00;;;;;;;0.48;42.48;99313.07;3577326;81;98345;-82
2022/04/01 03:44:47;;;;;;;10.00;3.63;;;;;;;0.46;42.57;99311.28;3553290;81;98616;-83
2022/04/01 03:49:54;;;;;;;10.70;4.63;;;;;;;0.43;42.44;99318.70;3553045;82;98747;-82
2022/04/01 03:54:59;;;;;;;8.30;2.70;;;;;;;0.39;42.67;99318.38;3550364;81;98232;-82
2022/04/01 04:00:00;;;;;;;8.77;2.77;;;;;;;0.36;43.19;99324.44;3553619;80;98117;-81
2022/04/01 04:05:06;;;;;;;9.27;3.63;;;;;;;0.30;43.15;99317.67;3546462;81;98469;-82
2022/04/01 04:10:08;;;;;;;8.60;2.83;;;;;;;0.28;43.23;99325.34;3466287;84;98352;-81
2022/04/01 04:15:10;;;;;;;7.47;2.40;;;;;;;0.24;43.17;99329.26;3436023;84;98392;-83
2022/04/01 04:20:35;;;;;;;8.30;3.43;;;;;;;0.21;42.95;99333.20;3440467;84;98627;-81
2022/04/01 04:25:38;;;;;;;5.73;2.53;;;;;;;0.16;43.43;99335.56;3436058;84;98391;-81
2022/04/01 04:30:55;;;;;;;7.80;3.07;;;;;;;0.13;43.40;99333.52;3481088;83;28402;-82
2022/04/01 04:36:04;;;;;;;;;;;;;;;0.11;43.53;99326.31;3485579;83;98659;-82
2022/04/01 04:41:08;;;;;;;9.90;2.80;;;;;;;0.08;43.61;99335.11;3442001;84;83386;-81
2022/04/01 04:46:10;;;;;;;8.10;3.07;;;;;;;0.04;43.53;99331.48;3448838;84;98327;-82
2022/04/01 04:51:12;;;;;;;7.97;2.50;;;;;;;0.05;43.64;99337.12;3488092;83;98298;-82
2022/04/01 04:56:14;;;;;;;8.03;2.67;;;;;;;0.06;43.86;99348.73;3480471;84;98247;-82
2022/04/01 05:01:40;;;;;;;10.13;2.80;;;;;;;0.07;44.04;99351.09;3485138;83;98343;-82
2022/04/01 05:07:15;;;;;;;9.47;3.30;;;;;;;0.08;43.92;99345.93;3480559;83;27577;-82
2022/04/01 05:12:34;;;;;;;8.10;2.73;;;;;;;0.10;44.01;99355.04;3464897;83;98125;-81
2022/04/01 05:17:40;;;;;;;11.03;3.83;;;;;;;0.14;44.06;99358.67;3472566;83;98156;-81
2022/04/01 05:22:53;;;;;;;6.15;2.98;;;;;;;0.15;44.23;99358.34;3469353;83;98741;-81
2022/04/01 05:28:00;;;;;;;11.60;4.97;;;;;;;0.18;44.10;99367.13;3479461;83;98637;-79
2022/04/01 05:33:12;;;;;;;8.15;3.30;;;;;;;0.23;44.50;99362.08;3473430;83;98562;-79
2022/04/01 05:38:13;;;;;;;9.83;3.33;;;;;;;0.27;44.34;99364.33;3480786;83;98366;-81
2022/04/01 05:43:14;;;;;;;9.27;3.27;;;;;;;0.32;44.12;99366.27;3469177;83;98646;-80
2022/04/01 05:48:18;;;;;;;8.37;3.17;;;;;;;0.35;43.95;99364.26;3487111;82;98001;-80
2022/04/01 05:53:21;;;;;;;10.87;3.67;;;;;;;0.42;44.04;99369.10;3485883;83;98464;-80
2022/04/01 05:58:22;;;;;;;8.88;2.90;;;;;;;0.49;44.36;99364.72;3490545;83;98953;-81
2022/04/01 06:03:46;;;;;;;7.73;2.90;;;;;;;0.55;44.01;99373.42;3499113;82;98657;-81
2022/04/01 06:09:04;;;;;;;9.37;3.07;;;;;;;0.62;43.51;99377.71;3489450;82;98675;-81
2022/04/01 06:14:11;;;;;;;9.33;3.40;;;;;;;0.69;43.80;99364.41;3444715;83;98565;-82
2022/04/01 06:19:26;;;;;;;10.82;3.70;;;;;;;0.79;43.55;99378.30;3490724;83;27315;-81
2022/04/01 06:24:35;;;;;;;7.70;2.70;;;;;;;0.89;43.27;99379.19;3485161;83;98550;-82
2022/04/01 06:29:42;;;;;;;8.53;3.10;;;;;;;1.05;44.20;99377.38;3492551;83;98136;-79
2022/04/01 06:35:03;;;;;;;8.45;3.12;;;;;;;1.23;43.62;99374.67;3485121;81;98385;-81
2022/04/01 06:40:11;;;;;;;8.17;3.70;;;;;;;1.39;43.27;99366.63;3487227;83;98297;-82
2022/04/01 06:45:15;;;;;;;10.85;2.75;;;;;;;1.63;43.59;99384.17;3429052;84;98490;-80
2022/04/01 06:50:16;;;;;;;8.33;2.90;;;;;;;1.88;43.45;99376.20;3489371;83;98523;-81
2022/04/01 06:55:18;;;;;;;9.87;4.30;;;;;;;2.11;43.46;99370.45;3485886;83;97938;-81
2022/04/01 07:00:20;;;;;;;14.07;3.50;;;;;;;2.29;42.59;99369.78;3555893;81;98491;-82
2022/04/01 07:05:21;;;;;;;9.80;3.50;;;;;;;2.42;41.69;99364.53;3541793;82;98724;-80
2022/04/01 07:10:22;;;;;;;10.43;2.83;;;;;;;2.49;42.38;99374.20;3560006;81;98391;-84
2022/04/01 07:15:23;;;;;;;11.80;3.63;;;;;;;2.69;42.06;99377.22;3560514;81;98529;-81
2022/04/01 07:20:25;;;;;;;14.83;5.10;;;;;;;2.84;42.01;99360.73;3552889;81;98533;-82
2022/04/01 07:25:26;;;;;;;17.30;6.83;;;;;;;2.99;41.68;99363.42;3561200;81;98056;-81
2022/04/01 07:30:27;;;;;;;12.47;3.60;;;;;;;3.06;41.19;99345.14;3560918;81;98063;-80
2022/04/01 07:35:29;;;;;;;9.60;3.40;;;;;;;3.38;40.86;99370.54;3548011;81;98415;-80
2022/04/01 07:40:31;;;;;;;9.90;3.67;;;;;;;3.56;41.36;99365.50;3563286;81;98274;-81
2022/04/01 07:45:37;;;;;;;10.68;4.00;;;;;;;3.70;40.79;99372.02;3551316;81;98366;-81
2022/04/01 07:50:35;;;;;;;10.63;2.97;;;;;;;3.90;40.00;99362.73;3575376;81;98849;-80
2022/04/01 07:55:36;;;;;;;10.10;3.40;;;;;;;4.05;39.45;99361.84;3573031;81;98587;-79
2022/04/01 08:00:37;;;;;;;10.10;2.70;;;;;;;4.26;39.67;99356.81;3575052;81;26297;-80
2022/04/01 08:05:38;;;;;;;7.23;2.50;;;;;;;4.49;38.77;99370.47;3576192;81;98828;-81
2022/04/01 08:10:39;;;;;;;7.47;2.73;;;;;;;4.63;39.08;99366.05;3574520;81;98201;-81
2022/04/01 08:15:40;;;;;;;7.33;2.77;;;;;;;4.86;38.76;99366.06;3568739;81;98426;-81
2022/04/01 08:20:41;;;;;;;9.30;2.83;;;;;;;5.01;37.38;99385.00;3592572;81;98335;-83
2022/04/01 08:25:42;;;;;;;10.70;3.03;;;;;;;5.20;37.24;99389.59;3527990;81;98460;-82
2022/04/01 08:30:43;;;;;;;9.30;2.70;;;;;;;5.17;36.13;99381.56;3565090;81;26385;-81
2022/04/01 08:35:44;;;;;;;9.33;2.52;;;;;;;5.23;36.03;99382.05;3547054;80;98202;-83
2022/04/01 08:40:46;;;;;;;11.40;2.90;;;;;;;5.44;35.66;99389.16;3580896;80;98328;-83
2022/04/01 08:45:47;;;;;;;10.23;2.27;;;;;;;5.51;35.72;99398.84;3558784;81;98565;-85
2022/04/01 08:50:48;;;;;;;8.00;2.17;;;;;;;5.56;34.23;99402.02;3568413;81;98546;-82
2022/04/01 08:55:53;;;;;;;11.97;2.80;;;;;;;5.70;34.14;99389.95;3550610;81;98350;-81
2022/04/01 09:00:54;;;;;;;11.47;3.50;;;;;;;5.97;34.63;99394.80;3608126;80;25805;-85
2022/04/01 09:05:58;;;;;;;10.53;3.40;;;;;;;6.18;33.20;99415.56;3511946;81;98441;-83
2022/04/01 09:11:04;;;;;;;8.53;3.33;;;;;;;6.24;33.33;99420.90;3569054;81;98328;-80
2022/04/01 09:16:05;;;;;;;17.32;3.47;;;;;;;6.35;32.71;99410.31;3558459;80;98364;-81
2022/04/01 09:21:10;;;;;;;15.07;4.03;;;;;;;6.55;32.46;99404.85;3559500;80;98507;-84
2022/04/01 09:26:11;;;;;;;14.30;3.67;;;;;;;6.80;33.28;99403.16;3578975;81;98414;-84
2022/04/01 09:31:15;;;;;;;14.40;2.80;;;;;;;6.79;31.02;99418.57;3604572;82;33139;-81
2022/04/01 09:36:23;;;;;;;16.40;3.40;;;;;;;7.07;32.23;99403.78;3583779;81;98266;-81
2022/04/01 09:41:58;;;;;;;21.20;4.55;;;;;;;7.48;31.97;99414.87;3583200;81;98310;-84
2022/04/01 09:47:00;;;;;;;18.00;2.73;;;;;;;7.54;30.83;99431.14;3561121;81;98336;-85
2022/04/01 09:52:04;;;;;;;14.87;3.90;;;;;;;7.79;30.49;99417.80;3567557;82;98438;-83
2022/04/01 09:57:07;;;;;;;16.35;3.42;;;;;;;7.78;29.79;99420.34;3534709;82;98558;-82
2022/04/01 10:02:08;;;;;;;10.30;3.13;;;;;;;8.02;28.97;99418.31;3555892;81;98460;-83
2022/04/01 10:07:10;;;;;;;14.90;3.30;;;;;;;8.14;29.48;99415.84;3549056;81;33306;-81
2022/04/01 10:12:14;;;;;;;13.07;3.07;;;;;;;8.06;28.89;99412.28;3556223;81;98381;-79
2022/04/01 10:17:15;;;;;;;13.73;2.80;;;;;;;8.46;29.19;99420.29;3557977;81;98676;-82
2022/04/01 10:22:17;;;;;;;33.63;5.13;;;;;;;8.63;28.91;99416.84;3528126;81;98462;-81
2022/04/01 10:27:27;;;;;;;20.15;3.45;;;;;;;8.86;28.97;99410.41;3557885;81;98900;-84
2022/04/01 10:32:43;;;;;;;19.40;3.70;;;;;;;9.03;28.57;99419.83;3556750;81;98636;-82
2022/04/01 10:37:44;;;;;;;20.95;4.30;;;;;;;9.23;29.33;99412.79;3539608;81;98596;-83
2022/04/01 10:42:47;;;;;;;14.87;3.10;;;;;;;9.60;27.79;99414.54;3537214;82;98499;-84
2022/04/01 10:53:45;;;;;;;17.07;2.60;;;;;;;9.72;26.18;99415.50;3553392;81;98616;-82
2022/04/01 10:59:17;;;;;;;16.25;3.25;;;;;;;9.31;25.71;99421.21;3571150;81;98553;-83
2022/04/01 11:04:24;;;;;;;10.18;2.52;;;;;;;9.47;26.74;99418.28;3561458;81;98567;-83
2022/04/01 11:09:55;;;;;;;16.20;3.45;;;;;;;9.62;27.20;99406.10;3571376;81;98454;-86
2022/04/01 11:15:08;;;;;;;12.65;2.30;;;;;;;9.45;25.37;99413.78;3568194;81;98417;-84
2022/04/01 11:20:22;;;;;;;15.48;2.77;;;;;;;9.29;26.01;99367.30;3566897;81;98468;-83
2022/04/01 11:25:31;;;;;;;10.60;3.95;;;;;;;9.29;26.01;99367.30;3553225;81;97987;-82
2022/04/01 11:30:45;;;;;;;16.03;2.73;;;;;;;9.17;25.36;99397.89;3562758;81;98439;-84
2022/04/01 11:35:53;;;;;;;14.63;2.70;;;;;;;9.13;25.76;99396.52;3537523;81;98287;-84
2022/04/01 11:41:00;;;;;;;16.70;2.60;;;;;;;8.93;25.52;99389.84;3598560;81;98352;-85
2022/04/01 11:46:06;;;;;;;16.42;2.87;;;;;;;8.77;24.98;99392.16;3557278;81;98503;-82
2022/04/01 11:51:15;;;;;;;13.53;3.02;;;;;;;8.83;25.15;99396.70;3582372;81;98574;-83
2022/04/01 11:56:19;;;;;;;9.53;2.85;;;;;;;8.88;26.41;99392.97;3565031;80;98802;-81
2022/04/01 12:01:25;;;;;;;20.27;3.93;;;;;;;8.96;25.45;99369.86;3556890;81;26595;-81
2022/04/01 12:11:52;;;;;;;13.57;2.97;;;;;;;9.16;25.84;99368.27;3557278;81;107785;-85
2022/04/01 12:16:51;;;;;;;8.75;2.50;;;;;;;9.14;24.41;99377.50;3551929;81;99279;-82
2022/04/01 12:21:58;;;;;;;16.32;3.67;;;;;;;9.18;24.87;99385.16;3559586;81;98401;-86
2022/04/01 12:26:59;;;;;;;13.10;2.62;;;;;;;9.23;25.15;99379.84;3571893;81;98731;-85
2022/04/01 12:32:05;;;;;;;16.63;2.70;;;;;;;9.15;25.09;99366.71;3550243;81;98743;-84
2022/04/01 12:37:07;;;;;;;14.73;2.67;;;;;;;9.14;24.94;99356.91;3565177;81;26205;-86
2022/04/01 12:42:10;;;;;;;19.67;3.72;;;;;;;9.07;25.78;99360.25;3571941;81;98687;-81
2022/04/01 12:47:15;;;;;;;14.20;2.80;;;;;;;9.14;24.89;99373.96;3581821;81;98545;-81
2022/04/01 12:52:19;;;;;;;14.07;3.10;;;;;;;9.03;24.37;99372.60;3566931;81;98822;-81
2022/04/01 12:57:21;;;;;;;10.03;3.30;;;;;;;8.97;25.00;99368.69;3588085;81;98804;-84
2022/04/01 13:02:25;;;;;;;11.88;2.60;;;;;;;8.86;25.65;99340.45;3581326;81;98868;-84
2022/04/01 13:07:32;;;;;;;16.03;3.10;;;;;;;9.11;25.92;99336.34;3572532;81;26547;-83
2022/04/01 13:12:43;;;;;;;12.23;3.10;;;;;;;9.03;25.22;99345.73;3555387;81;98415;-84
2022/04/01 13:17:55;;;;;;;14.78;3.47;;;;;;;9.07;25.20;99338.30;3575795;81;98316;-84
2022/04/01 13:22:59;;;;;;;16.60;2.57;;;;;;;9.00;25.09;99343.19;3577646;80;98473;-84
2022/04/01 13:28:00;;;;;;;14.18;4.03;;;;;;;9.09;25.41;99352.39;3559338;81;98505;-84
2022/04/01 13:33:01;;;;;;;11.13;3.10;;;;;;;8.98;24.93;99357.10;3549429;81;98547;-82
2022/04/01 13:38:04;;;;;;;14.37;3.67;;;;;;;8.80;24.31;99343.97;3556544;80;98499;-83
2022/04/01 13:43:05;;;;;;;27.83;3.53;;;;;;;8.71;24.64;99349.05;3574838;81;98182;-83
2022/04/01 13:48:08;;;;;;;38.53;13.33;;;;;;;8.82;25.84;99336.92;3569005;82;98306;-85
2022/04/01 13:53:10;;;;;;;10.15;2.80;;;;;;;8.78;25.84;99339.47;3546674;81;98661;-82
2022/04/01 13:58:14;;;;;;;9.13;2.90;;;;;;;8.77;25.51;99334.56;3558649;82;98428;-83
2022/04/01 14:03:15;;;;;;;17.75;3.00;;;;;;;8.75;25.73;99334.18;3582942;82;98309;-85
2022/04/01 14:08:17;;;;;;;12.47;2.87;;;;;;;8.78;25.19;99326.52;3595681;81;98468;-83
2022/04/01 14:13:18;;;;;;;14.43;2.80;;;;;;;8.55;25.28;99326.69;3571796;80;98158;-83
2022/04/01 14:18:19;;;;;;;22.90;4.50;;;;;;;8.51;25.76;99318.46;3593285;81;97561;-84
2022/04/01 14:23:20;;;;;;;14.28;3.42;;;;;;;8.49;25.36;99328.25;3590452;80;98342;-84
2022/04/01 14:28:22;;;;;;;14.07;3.97;;;;;;;8.48;26.61;99337.08;3590073;81;98413;-84
2022/04/01 14:33:23;;;;;;;20.47;4.97;;;;;;;8.55;26.85;99334.34;3551219;81;98714;-82
2022/04/01 14:38:25;;;;;;;11.53;4.07;;;;;;;8.45;25.97;99343.33;3560849;81;98511;-84
2022/04/01 14:43:26;;;;;;;14.93;3.60;;;;;;;8.40;25.78;99340.97;3571823;81;98247;-84
2022/04/01 14:48:29;;;;;;;12.40;3.53;;;;;;;8.26;26.42;99349.17;3562301;81;98268;-84
2022/04/01 14:53:30;;;;;;;9.00;2.60;;;;;;;8.15;26.45;99347.52;3566859;81;98498;-84
2022/04/01 14:58:31;;;;;;;26.63;7.67;;;;;;;8.11;26.75;99350.83;3604838;80;98237;-85
2022/04/01 15:03:32;;;;;;;22.83;5.37;;;;;;;8.17;26.76;99353.39;3554771;81;98824;-83
2022/04/01 15:08:33;;;;;;;21.93;5.03;;;;;;;8.04;25.99;99350.81;3583931;81;98529;-83
2022/04/01 15:13:34;;;;;;;14.03;3.50;;;;;;;8.05;26.80;99346.33;3597839;81;98146;-86
2022/04/01 15:18:38;;;;;;;16.57;3.90;;;;;;;8.10;26.50;99372.55;3574925;82;98640;-86
2022/04/01 15:23:40;;;;;;;16.13;4.30;;;;;;;7.93;26.13;99360.37;3591378;80;98688;-83
2022/04/01 15:28:42;;;;;;;11.63;4.25;;;;;;;7.77;26.89;99357.16;3569942;81;98561;-84
2022/04/01 15:33:45;;;;;;;17.23;3.97;;;;;;;7.69;26.67;99359.65;3548413;81;98584;-82
2022/04/01 15:38:50;;;;;;;20.37;6.53;;;;;;;7.63;27.38;99364.52;3584391;80;98501;-84
2022/04/01 15:43:53;;;;;;;16.60;5.87;;;;;;;7.59;27.13;99367.22;3565098;82;98650;-84
2022/04/01 15:48:54;;;;;;;23.63;5.77;;;;;;;7.45;27.97;99373.19;3564279;82;25830;-82
2022/04/01 15:53:55;;;;;;;17.03;5.33;;;;;;;7.28;28.15;99380.13;3584352;81;98252;-82
2022/04/01 15:58:56;;;;;;;16.27;4.10;;;;;;;7.24;28.91;99379.88;3574839;81;98550;-81
2022/04/01 16:04:02;;;;;;;11.15;3.55;;;;;;;7.18;29.00;99382.77;3563974;80;98518;-82
2022/04/01 16:09:05;;;;;;;22.87;4.80;;;;;;;7.08;29.08;99406.16;3575295;81;98526;-83
2022/04/01 16:14:07;;;;;;;18.10;5.22;;;;;;;6.84;28.93;99403.19;3584209;81;98866;-83
2022/04/01 16:19:09;;;;;;;18.93;5.53;;;;;;;6.62;29.37;99410.41;3585745;81;26437;-86
2022/04/01 16:24:13;;;;;;;21.00;5.55;;;;;;;6.44;29.63;99418.98;3553214;82;98293;-85
2022/04/01 16:29:14;;;;;;;16.53;4.17;;;;;;;6.34;29.91;99424.34;3582635;80;98411;-83
2022/04/01 16:34:15;;;;;;;13.65;3.92;;;;;;;6.34;30.46;99438.77;3550248;81;98497;-82
2022/04/01 16:39:19;;;;;;;16.80;4.47;;;;;;;6.26;30.36;99435.76;3569260;81;98551;-83
2022/04/01 16:44:20;;;;;;;10.43;3.73;;;;;;;6.14;30.58;99443.41;3586178;80;98583;-81
2022/04/01 16:49:23;;;;;;;13.23;3.80;;;;;;;6.04;30.76;99449.51;3584771;81;33199;-80
2022/04/01 16:54:23;;;;;;;15.47;4.10;;;;;;;5.96;30.59;99458.21;3561626;82;98410;-82
2022/04/01 16:59:24;;;;;;;17.73;3.80;;;;;;;5.85;31.18;99453.15;3572604;81;98360;-82
2022/04/01 17:04:27;;;;;;;11.97;3.43;;;;;;;5.77;31.43;99459.65;3565051;81;98570;-82
2022/04/01 17:14:47;;;;;;;15.30;4.17;;;;;;;5.59;32.08;99475.55;3568084;80;98663;-82
2022/04/01 17:19:48;;;;;;;14.57;4.13;;;;;;;5.47;32.24;99480.65;3573505;81;98623;-81
2022/04/01 17:24:53;;;;;;;15.03;4.23;;;;;;;5.40;32.59;99481.88;3559494;81;98578;-82
2022/04/01 17:29:56;;;;;;;17.20;4.40;;;;;;;5.30;33.45;99482.48;3573816;81;98352;-80
2022/04/01 17:35:17;;;;;;;11.80;4.10;;;;;;;5.17;34.53;99492.58;3524428;81;98611;-83
2022/04/01 17:40:22;;;;;;;15.27;3.27;;;;;;;4.97;35.35;99495.93;3596664;80;98508;-81
2022/04/01 17:45:28;;;;;;;15.40;3.80;;;;;;;4.86;36.13;99503.13;3595057;81;98488;-82
2022/04/01 17:50:34;;;;;;;16.10;3.50;;;;;;;4.73;36.54;99511.26;3573264;81;98823;-81
2022/04/01 17:55:40;;;;;;;11.90;4.22;;;;;;;4.58;37.47;99514.84;3565512;82;98023;-81
2022/04/01 18:00:41;;;;;;;16.00;4.33;;;;;;;4.47;37.74;99511.12;3571530;80;98566;-80
2022/04/01 18:05:46;;;;;;;8.77;3.83;;;;;;;4.35;38.34;99522.72;3518550;81;98738;-81
2022/04/01 18:10:47;;;;;;;12.78;4.05;;;;;;;4.19;38.76;99522.78;3549658;82;98872;-80
2022/04/01 18:15:52;;;;;;;17.80;4.10;;;;;;;4.05;39.04;99530.63;3583468;80;98689;-78
2022/04/01 18:20:53;;;;;;;11.83;4.00;;;;;;;3.93;39.95;99543.59;3589957;81;98918;-81
2022/04/01 18:26:05;;;;;;;14.43;4.07;;;;;;;3.81;40.11;99540.95;3571971;81;98669;-81
2022/04/01 18:31:10;;;;;;;9.77;3.20;;;;;;;3.75;40.50;99542.37;3559374;81;33264;-78
2022/04/01 18:36:13;;;;;;;9.70;3.33;;;;;;;3.68;41.32;99557.17;3563050;81;98448;-82
2022/04/01 18:41:18;;;;;;;13.43;3.60;;;;;;;3.56;41.50;99555.32;3576786;80;98517;-81
2022/04/01 18:46:21;;;;;;;10.85;4.12;;;;;;;3.46;41.92;99559.15;3549059;80;98688;-81
2022/04/01 18:51:23;;;;;;;13.33;3.43;;;;;;;3.40;42.14;99565.44;3530461;81;98966;-81
2022/04/01 18:56:26;;;;;;;12.03;3.67;;;;;;;3.32;42.43;99573.73;3559328;80;98709;-82
2022/04/01 19:01:35;;;;;;;11.57;4.33;;;;;;;3.25;43.07;99573.00;3578612;81;26427;-82
2022/04/01 19:07:00;;;;;;;10.13;4.33;;;;;;;3.17;43.67;99592.97;3550263;82;98087;-81
2022/04/01 19:12:08;;;;;;;13.28;4.30;;;;;;;3.12;43.80;99590.50;3564039;82;98592;-81
2022/04/01 19:17:10;;;;;;;13.73;4.43;;;;;;;3.09;43.84;99598.56;3587844;81;98577;-82
2022/04/01 19:22:14;;;;;;;10.90;4.00;;;;;;;3.01;44.22;99601.66;3581456;82;98798;-82
2022/04/01 19:27:20;;;;;;;14.43;4.77;;;;;;;3.00;44.48;99610.95;3525160;81;98800;-81
2022/04/01 19:32:23;;;;;;;13.68;5.20;;;;;;;2.89;45.19;99603.07;3577091;81;98798;-82
2022/04/01 19:37:24;;;;;;;15.63;4.93;;;;;;;2.84;45.50;99609.33;3590250;80;26062;-81
2022/04/01 19:42:25;;;;;;;12.97;4.93;;;;;;;2.77;46.15;99614.55;3566504;81;98647;-82
2022/04/01 19:47:26;;;;;;;17.20;6.90;;;;;;;2.75;46.47;99613.55;3570805;82;98679;-82
2022/04/01 19:52:29;;;;;;;10.63;4.13;;;;;;;2.71;46.66;99615.38;3560883;82;98692;-82
2022/04/01 19:57:30;;;;;;;11.50;3.92;;;;;;;2.64;47.58;99622.52;3597446;81;98401;-82
2022/04/01 20:02:31;;;;;;;11.47;4.27;;;;;;;2.60;47.49;99640.08;3588421;82;98777;-85
2022/04/01 20:07:32;;;;;;;9.67;4.03;;;;;;;2.56;48.16;99636.45;3596412;82;33130;-83
2022/04/01 20:12:35;;;;;;;10.60;4.17;;;;;;;2.54;48.35;99633.86;3598937;81;98043;-85
2022/04/01 20:17:36;;;;;;;9.73;3.00;;;;;;;2.48;48.93;99645.54;3596313;82;98542;-84
2022/04/01 20:22:37;;;;;;;7.47;3.60;;;;;;;2.42;49.27;99650.98;3549168;82;98782;-82
2022/04/01 20:27:38;;;;;;;10.50;3.30;;;;;;;2.42;50.11;99655.05;3577247;81;98531;-82
2022/04/01 20:32:39;;;;;;;10.53;3.27;;;;;;;2.36;50.30;99641.46;3571311;81;98410;-83
2022/04/01 20:37:42;;;;;;;9.83;3.73;;;;;;;2.32;50.65;99650.64;3579467;81;33201;-83
2022/04/01 20:42:43;;;;;;;7.50;3.03;;;;;;;2.27;50.72;99643.52;3583698;81;98285;-82
2022/04/01 20:47:45;;;;;;;12.73;3.97;;;;;;;2.22;51.41;99660.04;3598757;82;98545;-80
2022/04/01 20:52:45;;;;;;;11.40;3.60;;;;;;;2.16;51.50;99647.83;3587976;80;98881;-81
2022/04/01 20:57:49;;;;;;;9.27;3.33;;;;;;;2.11;52.18;99646.70;3582027;81;98925;-81
2022/04/01 21:02:49;;;;;;;9.60;3.05;;;;;;;2.08;51.94;99638.45;3571853;80;98595;-80
2022/04/01 21:07:50;;;;;;;9.00;3.33;;;;;;;2.04;52.48;99644.32;3592306;82;98255;-81
2022/04/01 21:12:52;;;;;;;7.27;3.17;;;;;;;2.02;52.39;99637.09;3562504;81;98355;-80
2022/04/01 21:17:53;;;;;;;12.00;3.00;;;;;;;1.96;52.69;99638.42;3590324;81;98422;-81
2022/04/01 21:22:54;;;;;;;11.77;3.80;;;;;;;1.90;53.19;99639.78;3575202;81;98780;-80
2022/04/01 21:27:59;;;;;;;10.87;4.50;;;;;;;1.83;53.79;99640.92;3601513;81;98540;-80
2022/04/01 21:33:00;;;;;;;12.30;3.97;;;;;;;1.79;53.78;99643.52;3582708;81;98553;-81
2022/04/01 21:38:02;;;;;;;12.50;4.67;;;;;;;1.77;54.26;99645.79;3591523;80;98525;-82
2022/04/01 21:43:03;;;;;;;10.83;3.37;;;;;;;1.70;54.64;99646.12;3571532;81;98227;-81
2022/04/01 21:48:06;;;;;;;13.40;5.50;;;;;;;1.63;54.61;99646.66;3567981;81;98370;-80
2022/04/01 21:53:07;;;;;;;13.45;4.00;;;;;;;1.52;55.71;99646.06;3564368;81;98732;-81
2022/04/01 21:58:09;;;;;;;12.83;3.60;;;;;;;1.47;55.51;99638.14;3593081;82;98554;-81
2022/04/01 22:03:14;;;;;;;8.45;3.37;;;;;;;1.41;56.00;99643.00;3589446;81;98424;-81
2022/04/01 22:08:15;;;;;;;7.53;3.07;;;;;;;1.34;56.42;99627.86;3528667;81;98667;-81
2022/04/01 22:13:16;;;;;;;11.93;3.10;;;;;;;1.31;56.24;99631.23;3524002;81;97978;-81
2022/04/01 22:18:18;;;;;;;8.70;2.90;;;;;;;1.24;56.67;99639.67;3542554;81;98798;-82
2022/04/01 22:23:19;;;;;;;8.33;2.97;;;;;;;1.15;57.26;99641.11;3572904;81;98113;-81
2022/04/01 22:28:20;;;;;;;8.53;2.80;;;;;;;1.12;58.22;99640.44;3587242;80;98363;-81
2022/04/01 22:33:21;;;;;;;6.20;2.57;;;;;;;1.07;57.92;99642.00;3598243;82;98416;-80
2022/04/01 22:38:22;;;;;;;8.97;2.50;;;;;;;1.04;58.20;99638.59;3598146;81;98308;-80
2022/04/01 22:43:23;;;;;;;9.63;3.17;;;;;;;1.02;58.46;99635.98;3585364;82;97997;-81
2022/04/01 22:48:24;;;;;;;7.30;2.87;;;;;;;0.96;58.89;99637.31;3597881;80;98496;-81
2022/04/01 22:53:26;;;;;;;7.20;3.00;;;;;;;0.92;59.17;99643.16;3578930;81;98145;-81
2022/04/01 22:58:28;;;;;;;9.87;4.10;;;;;;;0.84;59.70;99644.04;3569569;82;98398;-82
2022/04/01 23:03:29;;;;;;;11.20;3.03;;;;;;;0.78;60.03;99640.73;3536502;82;98287;-82
2022/04/01 23:08:30;;;;;;;9.50;3.00;;;;;;;0.70;60.23;99635.37;3556084;81;98417;-83
2022/04/01 23:13:31;;;;;;;8.68;3.30;;;;;;;0.62;60.71;99634.33;3557059;82;98132;-82
2022/04/01 23:18:32;;;;;;;10.20;3.57;;;;;;;0.55;60.56;99640.06;3572836;82;98149;-83
2022/04/01 23:23:34;;;;;;;7.47;3.50;;;;;;;0.47;60.70;99635.48;3573111;81;98383;-82
2022/04/01 23:28:35;;;;;;;8.60;3.17;;;;;;;0.39;60.90;99639.84;3568859;82;98395;-82
2022/04/01 23:33:36;;;;;;;11.30;2.65;;;;;;;0.28;61.62;99640.56;3559834;81;98156;-83
2022/04/01 23:38:37;;;;;;;10.63;3.57;;;;;;;0.19;61.86;99637.91;3569613;82;98510;-82
2022/04/01 23:43:37;;;;;;;7.30;2.73;;;;;;;0.11;62.75;99641.45;3548237;82;98218;-82
2022/04/01 23:48:38;;;;;;;9.23;3.30;;;;;;;0.04;62.57;99640.38;3552707;81;98092;-83
2022/04/01 23:53:40;;;;;;;9.83;3.67;;;;;;;-0.04;62.98;99635.23;3592618;81;98258;-82
2022/04/01 23:58:42;;;;;;;9.30;3.60;;;;;;;-0.12;63.57;99630.45;3580732;81;98556;-82
